createdAt,value
2022-10-25T00:01:36.559Z,1.17
2022-10-25T00:04:05.444Z,1.60
2022-10-25T00:06:32.329Z,1.70
2022-10-25T00:08:59.781Z,1.83
2022-10-25T00:11:28.813Z,1.77
2022-10-25T00:13:57.255Z,2.10
2022-10-25T00:16:26.636Z,1.97
2022-10-25T00:18:54.252Z,2.00
2022-10-25T00:21:23.006Z,1.50
2022-10-25T00:23:50.871Z,1.50
2022-10-25T00:26:18.422Z,1.90
2022-10-25T00:28:45.889Z,2.00
2022-10-25T00:31:14.593Z,1.47
2022-10-25T00:33:43.063Z,1.50
2022-10-25T00:36:11.902Z,1.60
2022-10-25T00:38:40.792Z,1.50
2022-10-25T00:41:08.642Z,1.83
2022-10-25T00:43:38.119Z,1.17
2022-10-25T00:46:11.331Z,1.97
2022-10-25T00:48:38.720Z,1.40
2022-10-25T00:51:05.933Z,1.27
2022-10-25T00:53:37.157Z,1.47
2022-10-25T00:56:09.664Z,1.10
2022-10-25T00:58:39.055Z,1.20
2022-10-25T01:01:08.748Z,1.00
2022-10-25T01:03:39.838Z,1.33
2022-10-25T01:06:11.609Z,1.23
2022-10-25T01:08:40.951Z,1.70
2022-10-25T01:11:09.349Z,1.37
2022-10-25T01:13:37.147Z,1.40
2022-10-25T01:16:10.723Z,1.20
2022-10-25T01:18:46.745Z,1.90
2022-10-25T01:21:33.581Z,1.03
2022-10-25T01:24:19.929Z,1.50
2022-10-25T01:27:28.739Z,1.37
2022-10-25T01:30:09.568Z,1.20
2022-10-25T01:32:45.632Z,1.60
2022-10-25T01:35:26.900Z,1.53
2022-10-25T01:38:08.346Z,1.17
2022-10-25T01:40:44.099Z,1.00
2022-10-25T01:43:21.253Z,0.80
2022-10-25T01:45:55.625Z,1.23
2022-10-25T01:48:30.255Z,1.10
2022-10-25T01:51:05.350Z,1.00
2022-10-25T01:53:32.443Z,1.47
2022-10-25T01:56:02.744Z,1.17
2022-10-25T01:58:38.926Z,1.10
2022-10-25T02:01:14.612Z,1.23
2022-10-25T02:03:48.850Z,1.00
2022-10-25T02:06:24.575Z,1.63
2022-10-25T02:08:57.804Z,1.10
2022-10-25T02:11:26.547Z,1.20
2022-10-25T02:14:00.602Z,1.10
2022-10-25T02:16:31.090Z,1.10
2022-10-25T02:19:02.235Z,1.73
2022-10-25T02:21:31.745Z,1.23
2022-10-25T02:24:03.218Z,1.30
2022-10-25T02:26:30.660Z,1.30
2022-10-25T02:28:58.119Z,1.67
2022-10-25T02:31:27.087Z,1.97
2022-10-25T02:33:54.591Z,2.00
2022-10-25T02:36:24.101Z,1.40
2022-10-25T02:38:52.935Z,1.13
2022-10-25T02:41:21.388Z,1.00
2022-10-25T02:43:49.156Z,1.30
2022-10-25T02:46:18.026Z,1.40
2022-10-25T02:48:45.925Z,1.47
2022-10-25T02:51:13.522Z,1.50
2022-10-25T02:53:42.455Z,1.40
2022-10-25T02:56:12.512Z,1.83
2022-10-25T02:58:41.327Z,1.50
2022-10-25T03:01:08.990Z,1.50
2022-10-25T03:03:36.961Z,1.40
2022-10-25T03:06:04.568Z,1.70
2022-10-25T03:08:31.969Z,1.63
2022-10-25T03:11:00.266Z,2.10
2022-10-25T03:13:27.598Z,1.73
2022-10-25T03:15:54.844Z,1.70
2022-10-25T03:18:22.798Z,1.50
2022-10-25T03:20:49.786Z,1.53
2022-10-25T03:23:17.739Z,1.70
2022-10-25T03:25:44.631Z,1.33
2022-10-25T03:28:13.207Z,1.60
2022-10-25T03:30:42.605Z,1.63
2022-10-25T03:33:09.930Z,1.90
2022-10-25T03:35:36.852Z,1.87
2022-10-25T03:38:04.132Z,1.93
2022-10-25T03:40:31.037Z,1.83
2022-10-25T03:42:58.589Z,2.07
2022-10-25T03:45:27.104Z,1.50
2022-10-25T03:47:54.300Z,1.67
2022-10-25T03:50:21.233Z,1.83
2022-10-25T03:52:48.380Z,1.97
2022-10-25T03:55:15.436Z,1.90
2022-10-25T03:57:42.777Z,1.97
2022-10-25T04:00:10.772Z,2.83
2022-10-25T04:02:39.556Z,1.90
2022-10-25T04:05:07.033Z,2.50
2022-10-25T04:07:34.363Z,2.17
2022-10-25T04:10:01.233Z,2.23
2022-10-25T04:12:28.577Z,2.40
2022-10-25T04:14:55.445Z,2.40
2022-10-25T04:17:22.638Z,2.90
2022-10-25T04:19:50.916Z,2.60
2022-10-25T04:22:18.171Z,2.40
2022-10-25T04:24:45.108Z,2.60
2022-10-25T04:27:12.125Z,2.63
2022-10-25T04:29:39.136Z,2.63
2022-10-25T04:32:06.913Z,2.27
2022-10-25T04:34:33.819Z,2.30
2022-10-25T04:37:02.304Z,2.27
2022-10-25T04:39:29.170Z,3.20
2022-10-25T04:41:56.378Z,3.23
2022-10-25T04:44:23.327Z,2.40
2022-10-25T04:46:52.049Z,2.20
2022-10-25T04:49:18.957Z,2.20
2022-10-25T04:51:46.114Z,2.50
2022-10-25T04:54:14.530Z,2.53
2022-10-25T04:56:41.788Z,2.60
2022-10-25T04:59:09.700Z,2.60
2022-10-25T05:01:36.678Z,2.77
2022-10-25T05:04:04.252Z,2.50
2022-10-25T05:06:31.125Z,2.30
2022-10-25T05:08:58.364Z,2.20
2022-10-25T05:11:26.749Z,2.63
2022-10-25T05:13:54.158Z,2.37
2022-10-25T05:16:24.377Z,2.67
2022-10-25T05:18:54.810Z,2.57
2022-10-25T05:21:22.606Z,2.90
2022-10-25T05:23:49.864Z,2.60
2022-10-25T05:26:18.520Z,2.47
2022-10-25T05:28:49.664Z,2.97
2022-10-25T05:31:18.713Z,2.80
2022-10-25T05:33:46.768Z,3.03
2022-10-25T05:36:14.983Z,3.00
2022-10-25T05:38:42.592Z,2.97
2022-10-25T05:41:11.705Z,2.60
2022-10-25T05:43:39.439Z,2.90
2022-10-25T05:46:09.304Z,3.57
2022-10-25T05:48:37.767Z,2.97
2022-10-25T05:51:32.465Z,3.30
2022-10-25T05:54:01.844Z,3.20
2022-10-25T05:56:30.929Z,3.30
2022-10-25T05:58:58.150Z,3.77
2022-10-25T06:01:27.170Z,3.00
2022-10-25T06:03:55.330Z,3.10
2022-10-25T06:06:23.903Z,3.57
2022-10-25T06:08:55.171Z,3.70
2022-10-25T06:11:22.031Z,3.40
2022-10-25T06:13:48.901Z,3.67
2022-10-25T06:16:18.981Z,3.87
2022-10-25T06:18:47.411Z,3.00
2022-10-25T06:21:16.114Z,3.00
2022-10-25T06:23:43.600Z,3.03
2022-10-25T06:26:12.758Z,3.23
2022-10-25T06:28:40.474Z,3.13
2022-10-25T06:31:09.152Z,3.53
2022-10-25T06:33:36.732Z,3.23
2022-10-25T06:36:07.489Z,3.43
2022-10-25T06:38:35.000Z,3.30
2022-10-25T06:41:03.542Z,3.67
2022-10-25T06:43:31.599Z,3.27
2022-10-25T06:45:58.513Z,3.63
2022-10-25T06:48:25.771Z,3.50
2022-10-25T06:51:02.425Z,3.00
2022-10-25T06:53:31.045Z,3.10
2022-10-25T06:56:04.463Z,3.43
2022-10-25T06:58:33.888Z,3.47
2022-10-25T07:01:01.898Z,3.53
2022-10-25T07:03:32.159Z,3.47
2022-10-25T07:05:59.796Z,3.30
2022-10-25T07:08:26.786Z,3.70
2022-10-25T07:10:55.965Z,3.20
2022-10-25T07:13:23.788Z,3.03
2022-10-25T07:15:50.919Z,3.00
2022-10-25T07:18:18.359Z,2.77
2022-10-25T07:20:50.479Z,2.90
2022-10-25T07:23:17.817Z,3.13
2022-10-25T07:25:45.672Z,3.13
2022-10-25T07:28:14.269Z,3.60
2022-10-25T07:30:45.270Z,2.93
2022-10-25T07:33:12.549Z,3.03
2022-10-25T07:35:52.190Z,3.60
2022-10-25T07:38:27.917Z,3.30
2022-10-25T07:40:58.496Z,3.10
2022-10-25T07:43:28.574Z,3.27
2022-10-25T07:45:55.984Z,3.87
2022-10-25T07:48:23.777Z,3.60
2022-10-25T07:50:51.073Z,3.60
2022-10-25T07:53:18.460Z,2.90
2022-10-25T07:55:50.387Z,3.77
2022-10-25T07:58:17.687Z,3.00
2022-10-25T08:00:46.082Z,3.13
2022-10-25T08:03:14.119Z,3.23
2022-10-25T08:05:42.881Z,3.23
2022-10-25T08:08:10.457Z,3.10
2022-10-25T08:10:37.371Z,2.77
2022-10-25T08:13:04.634Z,3.27
2022-10-25T08:15:31.461Z,3.00
2022-10-25T08:18:02.005Z,3.03
2022-10-25T08:20:49.554Z,2.70
2022-10-25T08:23:16.626Z,3.20
2022-10-25T08:25:43.487Z,2.97
2022-10-25T08:28:10.970Z,3.03
2022-10-25T08:30:38.007Z,3.37
2022-10-25T08:33:11.208Z,3.23
2022-10-25T08:35:38.611Z,2.70
2022-10-25T08:38:05.829Z,3.30
2022-10-25T08:40:46.484Z,2.60
2022-10-25T08:43:27.507Z,3.00
2022-10-25T08:45:57.194Z,5.43
2022-10-25T08:48:30.709Z,2.40
2022-10-25T08:51:02.076Z,3.00
2022-10-25T08:53:33.241Z,2.50
2022-10-25T08:56:17.858Z,3.03
2022-10-25T08:58:51.148Z,2.80
2022-10-25T09:01:23.888Z,2.97
2022-10-25T09:03:52.405Z,2.83
2022-10-25T09:06:27.364Z,3.17
2022-10-25T09:09:05.605Z,2.90
2022-10-25T09:11:48.846Z,3.60
2022-10-25T09:14:28.420Z,2.93
2022-10-25T09:17:02.134Z,2.53
2022-10-25T09:19:35.036Z,2.70
2022-10-25T09:22:04.070Z,3.20
2022-10-25T09:24:37.989Z,2.67
2022-10-25T09:27:07.312Z,3.77
2022-10-25T09:29:37.934Z,2.70
2022-10-25T09:32:13.459Z,3.30
2022-10-25T09:34:42.064Z,2.80
2022-10-25T09:37:16.603Z,2.90
2022-10-25T09:39:46.891Z,3.60
2022-10-25T09:42:19.808Z,3.60
2022-10-25T09:44:51.211Z,3.20
2022-10-25T09:47:30.322Z,3.30
2022-10-25T09:50:03.019Z,3.07
2022-10-25T09:52:40.517Z,3.20
2022-10-25T09:55:33.832Z,2.93
2022-10-25T09:58:01.653Z,3.27
2022-10-25T10:00:30.069Z,3.70
2022-10-25T10:02:57.077Z,3.60
2022-10-25T10:05:26.000Z,3.43
2022-10-25T10:07:54.668Z,3.43
2022-10-25T10:10:26.569Z,3.33
2022-10-25T10:15:30.123Z,3.30
2022-10-25T10:18:21.528Z,3.80
2022-10-25T10:21:03.357Z,4.17
2022-10-25T10:23:32.846Z,4.30
2022-10-25T10:26:02.763Z,3.60
2022-10-25T10:28:30.793Z,4.50
2022-10-25T10:30:58.975Z,3.77
2022-10-25T10:33:30.096Z,3.90
2022-10-25T10:36:26.483Z,3.83
2022-10-25T10:38:55.112Z,3.53
2022-10-25T10:41:26.921Z,3.53
2022-10-25T10:44:10.913Z,4.00
2022-10-25T10:46:44.840Z,3.77
2022-10-25T10:49:13.823Z,3.10
2022-10-25T10:51:45.215Z,3.50
2022-10-25T10:54:25.674Z,3.27
2022-10-25T10:56:54.623Z,2.97
2022-10-25T10:59:38.512Z,2.97
2022-10-25T11:02:26.252Z,3.33
2022-10-25T11:04:55.051Z,2.77
2022-10-25T11:07:29.844Z,2.57
2022-10-25T11:10:19.971Z,2.90
2022-10-25T11:13:11.768Z,3.10
2022-10-25T11:15:52.844Z,3.33
2022-10-25T11:18:27.563Z,3.60
2022-10-25T11:20:59.815Z,3.60
2022-10-25T11:23:36.850Z,4.20
2022-10-25T11:26:11.560Z,3.27
2022-10-25T11:28:49.069Z,3.57
2022-10-25T11:31:23.942Z,3.63
2022-10-25T11:34:09.225Z,3.57
2022-10-25T11:36:52.078Z,3.30
2022-10-25T11:39:31.533Z,3.97
2022-10-25T11:42:05.068Z,3.87
2022-10-25T11:44:57.897Z,3.30
2022-10-25T11:47:42.367Z,3.50
2022-10-25T11:50:21.655Z,3.30
2022-10-25T11:53:06.057Z,2.90
2022-10-25T11:55:40.017Z,3.27
2022-10-25T11:58:19.712Z,2.90
2022-10-25T12:00:57.362Z,2.73
2022-10-25T12:03:39.827Z,2.83
2022-10-25T12:06:15.698Z,2.57
2022-10-25T12:08:53.164Z,2.90
2022-10-25T12:11:26.753Z,2.67
2022-10-25T12:13:57.986Z,2.80
2022-10-25T12:16:25.481Z,2.50
2022-10-25T12:19:02.542Z,2.83
2022-10-25T12:21:42.507Z,3.37
2022-10-25T12:24:19.235Z,2.47
2022-10-25T12:26:51.094Z,3.23
2022-10-25T12:29:22.404Z,2.80
2022-10-25T12:31:56.625Z,3.30
2022-10-25T12:34:32.716Z,3.45
2022-10-25T12:37:04.770Z,3.20
2022-10-25T12:39:40.022Z,3.72
2022-10-25T12:42:14.207Z,2.92
2022-10-25T12:44:57.098Z,3.08
2022-10-25T12:47:35.501Z,3.22
2022-10-25T12:50:36.366Z,3.25
2022-10-25T12:53:31.999Z,3.28
2022-10-25T12:56:03.367Z,3.15
2022-10-25T12:58:56.289Z,2.97
2022-10-25T13:01:38.780Z,3.53
2022-10-25T13:04:28.507Z,3.47
2022-10-25T13:06:57.370Z,3.53
2022-10-25T13:09:31.774Z,3.50
2022-10-25T13:12:01.101Z,3.60
2022-10-25T13:14:32.305Z,3.70
2022-10-25T13:17:36.837Z,3.50
2022-10-25T13:20:45.426Z,3.47
2022-10-25T13:23:56.345Z,3.70
2022-10-25T13:26:25.905Z,3.70
2022-10-25T13:28:55.803Z,3.47
2022-10-25T13:34:37.795Z,3.42
2022-10-25T13:37:26.554Z,2.97
2022-10-25T13:39:57.388Z,2.92
2022-10-25T13:42:31.782Z,2.83
2022-10-25T13:45:05.771Z,2.90
2022-10-25T13:47:38.162Z,2.78
2022-10-25T13:53:02.358Z,3.38
2022-10-25T13:55:36.885Z,3.05
2022-10-25T13:58:45.592Z,2.80
2022-10-25T14:01:54.557Z,2.90
2022-10-25T14:04:38.080Z,3.65
2022-10-25T14:07:42.310Z,2.65
2022-10-25T14:12:57.538Z,3.03
2022-10-25T14:15:39.771Z,2.80
2022-10-25T14:18:12.531Z,3.80
2022-10-25T14:20:39.423Z,11.93
2022-10-25T14:23:08.284Z,8.07
2022-10-25T14:25:37.943Z,13.73
2022-10-25T14:28:13.946Z,3.65
2022-10-25T14:30:44.675Z,3.90
2022-10-25T14:33:27.176Z,3.70
2022-10-25T14:35:56.746Z,3.30
2022-10-25T14:38:26.095Z,3.90
2022-10-25T14:40:55.140Z,3.63
2022-10-25T14:43:25.566Z,3.38
2022-10-25T14:46:02.857Z,3.90
2022-10-25T14:48:30.759Z,3.67
2022-10-25T14:51:00.987Z,4.30
2022-10-25T14:53:28.855Z,4.00
2022-10-25T14:55:59.023Z,4.47
2022-10-25T14:58:27.131Z,4.10
2022-10-25T15:00:56.785Z,4.33
2022-10-25T15:03:27.998Z,4.13
2022-10-25T15:05:55.829Z,4.20
2022-10-25T15:08:25.519Z,4.40
2022-10-25T15:10:57.144Z,4.03
2022-10-25T15:13:28.812Z,4.20
2022-10-25T15:15:57.305Z,4.13
2022-10-25T15:18:37.908Z,4.53
2022-10-25T15:21:10.259Z,4.17
2022-10-25T15:23:38.024Z,4.57
2022-10-25T15:26:27.140Z,4.43
2022-10-25T15:28:56.438Z,4.67
2022-10-25T15:31:25.935Z,4.73
2022-10-25T15:33:59.422Z,4.90
2022-10-25T15:36:28.859Z,4.93
2022-10-25T15:39:09.004Z,4.50
2022-10-25T15:41:38.471Z,4.70
2022-10-25T15:44:05.815Z,4.60
2022-10-25T15:46:37.812Z,4.93
2022-10-25T15:49:08.429Z,4.47
2022-10-25T15:51:39.092Z,4.53
2022-10-25T15:54:11.094Z,4.83
2022-10-25T15:56:37.979Z,5.90
2022-10-25T15:59:05.377Z,4.47
2022-10-25T16:01:32.456Z,13.43
2022-10-25T16:03:59.834Z,8.63
2022-10-25T16:06:28.111Z,5.33
2022-10-25T16:08:55.368Z,6.00
2022-10-25T16:11:22.242Z,6.07
2022-10-25T16:13:52.094Z,6.00
2022-10-25T16:16:39.246Z,5.57
2022-10-25T16:19:10.029Z,5.67
2022-10-25T16:21:38.346Z,5.70
2022-10-25T16:24:05.819Z,5.60
2022-10-25T16:26:36.130Z,5.70
2022-10-25T16:29:03.630Z,6.77
2022-10-25T16:31:30.443Z,6.37
2022-10-25T16:33:57.693Z,6.60
2022-10-25T16:36:24.635Z,5.87
2022-10-25T16:38:53.106Z,5.87
2022-10-25T16:41:24.189Z,5.77
2022-10-25T16:43:51.775Z,6.47
2022-10-25T16:46:18.645Z,5.43
2022-10-25T16:48:45.933Z,5.63
2022-10-25T16:51:14.280Z,6.00
2022-10-25T16:53:42.278Z,5.70
2022-10-25T16:56:11.392Z,11.40
2022-10-25T16:58:38.857Z,9.60
2022-10-25T17:01:19.473Z,8.80
2022-10-25T17:03:48.843Z,9.97
2022-10-25T17:06:39.750Z,14.77
2022-10-25T17:09:02.791Z,6.90
2022-10-25T17:11:31.063Z,5.97
2022-10-25T17:13:58.318Z,5.93
2022-10-25T17:16:25.248Z,5.70
2022-10-25T17:18:52.443Z,5.63
2022-10-25T17:21:19.367Z,5.47
2022-10-25T17:23:46.342Z,5.80
2022-10-25T17:26:13.896Z,5.80
2022-10-25T17:28:44.272Z,6.23
2022-10-25T17:31:13.762Z,5.43
2022-10-25T17:33:41.395Z,8.60
2022-10-25T17:36:10.627Z,9.50
2022-10-25T17:38:37.557Z,8.93
2022-10-25T17:41:05.675Z,6.27
2022-10-25T17:43:34.290Z,5.93
2022-10-25T17:46:05.874Z,5.90
2022-10-25T17:48:33.408Z,5.70
2022-10-25T17:51:01.975Z,6.00
2022-10-25T17:53:28.926Z,5.80
2022-10-25T17:55:56.318Z,5.63
2022-10-25T17:58:23.513Z,5.90
2022-10-25T18:00:50.572Z,5.60
2022-10-25T18:03:18.855Z,4.87
2022-10-25T18:05:45.716Z,5.40
2022-10-25T18:08:12.569Z,4.83
2022-10-25T18:10:40.089Z,5.00
2022-10-25T18:13:06.953Z,4.77
2022-10-25T18:15:35.928Z,4.37
2022-10-25T18:18:02.828Z,5.23
2022-10-25T18:20:31.458Z,5.40
2022-10-25T18:22:58.373Z,4.97
2022-10-25T18:25:25.273Z,5.53
2022-10-25T18:27:52.166Z,5.50
2022-10-25T18:30:19.396Z,5.10
2022-10-25T18:32:46.311Z,6.03
2022-10-25T18:35:13.281Z,7.20
2022-10-25T18:37:41.501Z,8.03
2022-10-25T18:40:10.139Z,8.07
2022-10-25T18:42:38.135Z,7.33
2022-10-25T18:45:06.314Z,7.03
2022-10-25T18:47:33.488Z,7.33
2022-10-25T18:50:00.425Z,7.43
2022-10-25T18:52:27.450Z,7.40
2022-10-25T18:54:55.695Z,7.07
2022-10-25T18:57:22.673Z,6.97
2022-10-25T18:59:49.916Z,6.90
2022-10-25T19:02:17.028Z,7.90
2022-10-25T19:04:44.294Z,7.90
2022-10-25T19:07:11.300Z,7.77
2022-10-25T19:09:38.408Z,7.23
2022-10-25T19:12:07.291Z,6.93
2022-10-25T19:14:34.337Z,8.23
2022-10-25T19:17:01.629Z,7.30
2022-10-25T19:19:28.744Z,6.93
2022-10-25T19:21:55.747Z,6.87
2022-10-25T19:24:23.361Z,7.73
2022-10-25T19:26:50.654Z,9.77
2022-10-25T19:29:19.163Z,8.77
2022-10-25T19:31:46.048Z,9.23
2022-10-25T19:34:13.004Z,9.10
2022-10-25T19:36:39.896Z,9.00
2022-10-25T19:39:07.112Z,9.00
2022-10-25T19:41:34.007Z,9.70
2022-10-25T19:44:01.427Z,10.93
2022-10-25T19:46:29.855Z,9.37
2022-10-25T19:48:57.142Z,9.63
2022-10-25T19:51:24.242Z,8.30
2022-10-25T19:53:51.683Z,8.33
2022-10-25T19:56:19.916Z,7.63
2022-10-25T19:58:47.025Z,9.50
2022-10-25T20:01:15.952Z,7.70
2022-10-25T20:03:45.493Z,7.37
2022-10-25T20:06:17.584Z,8.17
2022-10-25T20:08:47.320Z,7.20
2022-10-25T20:11:15.516Z,8.30
2022-10-25T20:13:42.633Z,9.03
2022-10-25T20:16:10.254Z,9.27
2022-10-25T20:18:39.174Z,8.93
2022-10-25T20:21:11.186Z,8.97
2022-10-25T20:23:39.349Z,9.03
2022-10-25T20:26:12.047Z,7.93
2022-10-25T20:28:39.430Z,7.67
2022-10-25T20:31:06.331Z,7.87
2022-10-25T20:33:33.548Z,7.23
2022-10-25T20:36:02.825Z,7.13
2022-10-25T20:38:32.130Z,7.33
2022-10-25T20:41:03.640Z,7.50
2022-10-25T20:43:30.885Z,7.63
2022-10-25T20:45:57.809Z,15.00
2022-10-25T20:48:24.822Z,7.60
2022-10-25T20:50:53.167Z,8.80
2022-10-25T20:53:21.426Z,8.40
2022-10-25T20:55:50.839Z,7.60
2022-10-25T20:58:19.448Z,7.50
2022-10-25T21:00:47.221Z,8.33
2022-10-25T21:03:15.771Z,7.57
2022-10-25T21:05:45.316Z,7.83
2022-10-25T21:08:13.186Z,7.63
2022-10-25T21:10:40.738Z,7.60
2022-10-25T21:13:09.778Z,7.60
2022-10-25T21:15:37.451Z,7.77
2022-10-25T21:18:04.472Z,9.13
2022-10-25T21:20:32.565Z,12.57
2022-10-25T21:22:59.635Z,8.03
2022-10-25T21:25:26.611Z,8.00
2022-10-25T21:27:56.289Z,6.87
2022-10-25T21:30:24.711Z,6.93
2022-10-25T21:32:51.621Z,8.37
2022-10-25T21:35:20.639Z,8.13
2022-10-25T21:37:49.365Z,7.70
2022-10-25T21:40:17.900Z,8.13
2022-10-25T21:42:45.743Z,7.57
2022-10-25T21:45:12.671Z,8.13
2022-10-25T21:47:41.250Z,7.57
2022-10-25T21:50:09.242Z,7.50
2022-10-25T21:52:36.511Z,7.83
2022-10-25T21:55:03.644Z,7.27
2022-10-25T21:57:30.981Z,7.10
2022-10-25T21:59:57.910Z,6.47
2022-10-25T22:02:25.460Z,6.50
2022-10-25T22:04:53.891Z,6.90
2022-10-25T22:07:21.103Z,6.30
2022-10-25T22:09:48.047Z,6.00
2022-10-25T22:12:15.319Z,6.20
2022-10-25T22:14:42.205Z,6.40
2022-10-25T22:17:09.150Z,6.53
2022-10-25T22:19:35.963Z,6.40
2022-10-25T22:22:04.653Z,6.20
2022-10-25T22:24:31.549Z,6.67
2022-10-25T22:26:58.834Z,6.20
2022-10-25T22:29:25.753Z,6.53
2022-10-25T22:31:52.616Z,6.27
2022-10-25T22:34:19.486Z,6.00
2022-10-25T22:36:46.348Z,6.47
2022-10-25T22:39:16.791Z,6.27
2022-10-25T22:41:45.834Z,6.30
2022-10-25T22:44:13.349Z,6.40
2022-10-25T22:46:40.653Z,6.23
2022-10-25T22:49:09.147Z,5.77
2022-10-25T22:51:37.423Z,5.93
2022-10-25T22:54:04.576Z,6.20
2022-10-25T22:56:33.556Z,6.30
2022-10-25T22:59:02.253Z,5.70
2022-10-25T23:01:30.816Z,6.30
2022-10-25T23:03:58.998Z,6.63
2022-10-25T23:06:27.740Z,6.00
2022-10-25T23:08:55.262Z,6.13
2022-10-25T23:11:24.133Z,5.90
2022-10-25T23:13:53.328Z,6.20
2022-10-25T23:16:20.782Z,6.13
2022-10-25T23:18:48.044Z,6.63
2022-10-25T23:21:17.905Z,6.23
2022-10-25T23:23:46.206Z,6.30
2022-10-25T23:26:15.972Z,5.90
2022-10-25T23:28:43.391Z,5.57
2022-10-25T23:31:12.787Z,5.60
2022-10-25T23:33:42.015Z,6.17
2022-10-25T23:36:14.234Z,5.80
2022-10-25T23:38:41.957Z,6.03
2022-10-25T23:41:08.940Z,5.17
2022-10-25T23:43:36.220Z,6.00
2022-10-25T23:46:03.585Z,5.20
2022-10-25T23:48:32.398Z,5.70
2022-10-25T23:53:33.956Z,5.33
2022-10-25T23:56:01.170Z,5.57
2022-10-25T23:58:28.393Z,5.43
